Wilson Mersin — P3PA6 — position and weather

sailwx.info

Track history (hours):
 
Tides and Currents Weather Stations Pressure Air Temp Water Temp Dewpoint Dewpoint Depression Visibility Wind Speed Wind Dir Waves Ship Positions

Wilson Mersin

Last reported at 2018-Apr-26 15:29 UTC. Time now 2018-Apr-26 15:32 UTC.
Position N 51°03' E 002°20'.

Length 107 m; draft 4.8 m.

Type: Cargo ship. MMSI: 210072000.

Date/timePositionNaut miles runAvg speedWind from/ knotsBaromVisibWave heightAir tempDewpointWater temp
2018-Apr-26 15:29N 51°03' E 002°20'0 0.0
2018-Apr-26 14:56N 51°03' E 002°20'0 0.0
2018-Apr-26 14:29N 51°03' E 002°20'0 0.0
2018-Apr-26 13:56N 51°03' E 002°20'0 0.0
2018-Apr-26 13:29N 51°03' E 002°20'0 0.0
2018-Apr-26 12:59N 51°03' E 002°20'0 0.0
2018-Apr-26 12:26N 51°03' E 002°20'1 0.9
2018-Apr-26 11:23N 51°03' E 002°21'2 4.7
2018-Apr-26 11:00N 51°04' E 002°19'3 6.0
2018-Apr-26 10:30N 51°04' E 002°14'714.6
2018-Apr-26 10:00N 51°03' E 002°03'815.0
2018-Apr-26 09:28N 51°03' E 001°50'713.6
2018-Apr-26 08:59N 51°07' E 001°41'4 9.3
2018-Apr-26 08:31N 51°11' E 001°43'611.2
2018-Apr-26 08:00N 51°15' E 001°49'611.9
2018-Apr-26 07:30N 51°20' E 001°54'612.7
2018-Apr-26 07:01N 51°26' E 001°59'713.4
2018-Apr-26 06:30N 51°31' E 002°06'713.7
2018-Apr-26 06:00N 51°36' E 002°13'7012.5
2018-Apr-26 00:24N 52°29' E 003°28'511.9
2018-Apr-25 23:59N 52°30' E 003°36'611.7
2018-Apr-25 23:30N 52°31' E 003°45'611.8
2018-Apr-25 22:59N 52°31' E 003°55'611.7
2018-Apr-25 22:30N 52°31' E 004°04'612.0
2018-Apr-25 22:00N 52°31' E 004°14'612.4
2018-Apr-25 21:30N 52°29' E 004°24'510.1
2018-Apr-25 21:00N 52°28' E 004°32'3 5.4
2018-Apr-25 20:31N 52°28' E 004°37'1 1.5
2018-Apr-25 20:00N 52°28' E 004°38'1 1.3
2018-Apr-25 19:30N 52°28' E 004°39'1 2.1
2018-Apr-25 19:00N 52°27' E 004°40'4 7.1
2018-Apr-25 18:30N 52°26' E 004°46'3 6.6
2018-Apr-25 18:01N 52°25' E 004°51'2 4.7
2018-Apr-25 17:30N 52°23' E 004°54'0 0.0
2018-Apr-25 17:00N 52°23' E 004°54'0 0.0
2018-Apr-25 16:30N 52°23' E 004°54'0 0.0
2018-Apr-25 16:00N 52°23' E 004°54'0 0.0
2018-Apr-25 15:30N 52°23' E 004°54'0 0.0
2018-Apr-25 15:00N 52°23' E 004°54'0 0.0
2018-Apr-25 14:30N 52°23' E 004°54'0 0.0
2018-Apr-25 14:00N 52°23' E 004°54'0 0.0
2018-Apr-25 13:30N 52°23' E 004°54'0 0.0
2018-Apr-25 13:00N 52°23' E 004°54'0 0.0
2018-Apr-25 12:30N 52°24' E 004°54'0 0.0
2018-Apr-25 11:57N 52°23' E 004°54'0 0.0
2018-Apr-25 11:30N 52°23' E 004°54'0 0.0
2018-Apr-25 11:00N 52°24' E 004°54'0 0.0
2018-Apr-25 10:30N 52°23' E 004°54'0 0.0
2018-Apr-25 10:00N 52°24' E 004°54'0 0.0
2018-Apr-25 09:30N 52°23' E 004°54'0 0.0
2018-Apr-25 09:00N 52°23' E 004°54'0 0.0
2018-Apr-25 08:30N 52°23' E 004°54'0 0.0
2018-Apr-25 08:00N 52°23' E 004°54'0 0.0
2018-Apr-25 07:30N 52°23' E 004°54'0 0.0
2018-Apr-25 07:00N 52°23' E 004°54'0 0.0
2018-Apr-25 06:30N 52°23' E 004°54'0 0.0
2018-Apr-25 06:00N 52°23' E 004°54'0 0.0
2018-Apr-25 05:30N 52°23' E 004°54'0 0.0
2018-Apr-25 05:00N 52°23' E 004°54'0 0.0
2018-Apr-25 04:30N 52°23' E 004°54'0 0.0
2018-Apr-25 04:00N 52°23' E 004°54'0 0.0
2018-Apr-25 03:30N 52°23' E 004°54'0 0.0
2018-Apr-25 03:00N 52°23' E 004°54'0 0.0
2018-Apr-25 02:30N 52°23' E 004°54'0 0.0
2018-Apr-25 02:00N 52°23' E 004°54'0 0.0
2018-Apr-25 01:30N 52°23' E 004°54'0 0.0
2018-Apr-25 01:00N 52°23' E 004°54'0 0.0
2018-Apr-25 00:30N 52°23' E 004°54'0 0.0
2018-Apr-25 00:00N 52°23' E 004°54'0 0.0
2018-Apr-24 23:30N 52°23' E 004°54'0 0.0
2018-Apr-24 23:00N 52°23' E 004°54'0 0.0
2018-Apr-24 22:30N 52°23' E 004°54'0 0.0
2018-Apr-24 22:00N 52°23' E 004°54'0 0.0
2018-Apr-24 21:30N 52°23' E 004°54'0 0.0
2018-Apr-24 21:00N 52°23' E 004°54'0 0.0
2018-Apr-24 20:30N 52°23' E 004°54'0 0.0
2018-Apr-24 20:00N 52°23' E 004°54'0 0.0
2018-Apr-24 19:30N 52°23' E 004°54'0 0.0
2018-Apr-24 19:00N 52°23' E 004°54'0 0.0
2018-Apr-24 18:30N 52°23' E 004°54'0 0.0
2018-Apr-24 17:57N 52°23' E 004°54'0 0.0
2018-Apr-24 17:30N 52°23' E 004°54'0 0.0
2018-Apr-24 17:00N 52°23' E 004°54'0 0.0
2018-Apr-24 16:30N 52°23' E 004°54'0 0.0
2018-Apr-24 16:00N 52°23' E 004°54'0 0.0
2018-Apr-24 15:30N 52°23' E 004°54'0 0.0
2018-Apr-24 15:00N 52°23' E 004°54'0 0.0
2018-Apr-24 14:30N 52°23' E 004°54'0 0.0
2018-Apr-24 14:00N 52°23' E 004°54'0 0.5
2018-Apr-24 13:30N 52°24' E 004°54'1 2.2
2018-Apr-24 13:00N 52°24' E 004°52'0 0.3
2018-Apr-24 12:30N 52°24' E 004°52'0 0.0
2018-Apr-24 12:00N 52°24' E 004°52'0 0.0
2018-Apr-24 11:27N 52°24' E 004°52'0 0.0
2018-Apr-24 11:00N 52°24' E 004°52'0 0.0
2018-Apr-24 10:30N 52°24' E 004°52'0 0.0
2018-Apr-24 10:00N 52°24' E 004°52'0 0.0
2018-Apr-24 09:30N 52°24' E 004°52'0 0.0
2018-Apr-24 09:00N 52°24' E 004°52'0 0.0
2018-Apr-24 08:30N 52°24' E 004°52'0 0.0
2018-Apr-24 08:00N 52°24' E 004°52'0 0.0
2018-Apr-24 07:30N 52°24' E 004°52'0 0.0
2018-Apr-24 07:00N 52°24' E 004°52'0 0.0
2018-Apr-24 06:30N 52°24' E 004°52'0 0.0
2018-Apr-24 06:00N 52°24' E 004°52'0 0.0
2018-Apr-24 05:30N 52°24' E 004°52'0 0.0
2018-Apr-24 05:00N 52°24' E 004°52'0 0.0
2018-Apr-24 04:27N 52°24' E 004°52'0 0.0
2018-Apr-24 04:00N 52°24' E 004°52'0 0.0
2018-Apr-24 03:30N 52°24' E 004°52'0 0.0
2018-Apr-24 03:00N 52°24' E 004°52'0 0.0
2018-Apr-24 02:30N 52°24' E 004°52'0 0.0
2018-Apr-24 02:00N 52°24' E 004°52'0 0.0
2018-Apr-24 01:30N 52°24' E 004°52'0 0.0
2018-Apr-24 01:00N 52°24' E 004°52'0 0.0
2018-Apr-24 00:30N 52°24' E 004°52'0 0.0
2018-Apr-23 23:57N 52°24' E 004°52'0 0.0
2018-Apr-23 23:30N 52°24' E 004°52'0 0.0
2018-Apr-23 23:00N 52°24' E 004°52'0 0.0
2018-Apr-23 22:30N 52°24' E 004°52'0 0.0
2018-Apr-23 22:00N 52°24' E 004°52'0 0.0
2018-Apr-23 21:30N 52°24' E 004°52'0 0.0
2018-Apr-23 21:00N 52°24' E 004°52'0 0.0
2018-Apr-23 20:30N 52°24' E 004°52'0 0.0
2018-Apr-23 20:00N 52°24' E 004°52'0 0.0
2018-Apr-23 19:30N 52°24' E 004°52'0 0.0
2018-Apr-23 19:01N 52°24' E 004°52'2 3.1
2018-Apr-23 18:31N 52°25' E 004°50'4 8.3
2018-Apr-23 18:01N 52°26' E 004°43'4 7.7
2018-Apr-23 17:30N 52°28' E 004°38'1 1.7
2018-Apr-23 17:01N 52°28' E 004°36'1 2.2
2018-Apr-23 16:31N 52°28' E 004°35'2 4.9
2018-Apr-23 16:01N 52°28' E 004°31'5 9.4
2018-Apr-23 15:31N 52°28' E 004°23'611.1
2018-Apr-23 15:01N 52°29' E 004°14'510.4
2018-Apr-23 14:31N 52°32' E 004°07'712.3
2018-Apr-23 13:56N 52°39' E 004°02'34411.1
2018-Apr-22 06:47N 58°23' E 004°36'311.2
2018-Apr-22 06:31N 58°26' E 004°36'611.3
2018-Apr-22 06:00N 58°31' E 004°35'510.8
2018-Apr-22 05:30N 58°37' E 004°34'1111.2
2018-Apr-22 04:30N 58°48' E 004°31'8711.5
2018-Apr-21 20:57N 60°15' E 004°28'511.4
2018-Apr-21 20:30N 60°20' E 004°27'511.2
2018-Apr-21 20:00N 60°25' E 004°25'611.3
2018-Apr-21 19:29N 60°31' E 004°23'611.4
2018-Apr-21 19:00N 60°37' E 004°22'1311.6
2018-Apr-21 17:51N 60°50' E 004°17'411.7
2018-Apr-21 17:30N 60°54' E 004°16'511.1
2018-Apr-21 17:00N 60°59' E 004°15'5 9.8
2018-Apr-21 16:30N 61°04' E 004°15'510.3
2018-Apr-21 16:00N 61°09' E 004°16'3610.8
2018-Apr-21 12:41N 61°45' E 004°23'210.3
2018-Apr-21 12:30N 61°47' E 004°25'610.6
2018-Apr-21 11:59N 61°52' E 004°30'510.0
2018-Apr-21 11:30N 61°56' E 004°34'510.2
2018-Apr-21 11:00N 62°01' E 004°39'510.8
2018-Apr-21 10:30N 62°06' E 004°44'611.1
2018-Apr-21 10:00N 62°11' E 004°48'510.3
2018-Apr-21 09:30N 62°15' E 004°53'510.3
2018-Apr-21 09:00N 62°20' E 004°58'5 9.9
2018-Apr-21 08:31N 62°23' E 005°06'5 9.8
2018-Apr-21 08:00N 62°27' E 005°12'510.3
2018-Apr-21 07:30N 62°31' E 005°19'510.4
2018-Apr-21 07:00N 62°35' E 005°26'510.0
2018-Apr-21 06:30N 62°40' E 005°33'5 9.9
2018-Apr-21 06:00N 62°43' E 005°39'5 9.4
2018-Apr-21 05:30N 62°47' E 005°46'5 9.5
2018-Apr-21 05:00N 62°50' E 005°53'5 9.0
2018-Apr-21 04:30N 62°53' E 006°00'4 9.0
2018-Apr-21 04:00N 62°57' E 006°07'4 8.7
2018-Apr-21 03:30N 62°60' E 006°14'4 8.7
2018-Apr-21 03:00N 63°03' E 006°21'4 8.9
2018-Apr-21 02:30N 63°06' E 006°28'5 9.3
2018-Apr-21 02:00N 63°10' E 006°34'5 9.3
2018-Apr-21 01:30N 63°13' E 006°41'5 9.0
2018-Apr-21 01:00N 63°16' E 006°48'4 8.3
2018-Apr-21 00:31N 63°19' E 006°54'4 8.2
2018-Apr-21 00:00N 63°23' E 006°59'4 8.0
2018-Apr-20 23:31N 63°26' E 007°05'4 7.9
2018-Apr-20 23:01N 63°29' E 007°10'4 7.8
2018-Apr-20 22:29N 63°32' E 007°16'4 7.7
2018-Apr-20 22:00N 63°35' E 007°21'4 7.4
2018-Apr-20 21:31N 63°38' E 007°27'4 7.5
2018-Apr-20 20:59N 63°41' E 007°32'4 7.9
2018-Apr-20 20:30N 63°44' E 007°37'4 8.4
2018-Apr-20 20:00N 63°47' E 007°43'4 8.5
2018-Apr-20 19:30N 63°51' E 007°49'5 9.2
2018-Apr-20 19:00N 63°54' E 007°55'17810.2
2018-Apr-20 01:36N 66°26' E 011°34'210.7
2018-Apr-20 01:28N 66°28' E 011°36'510.9
2018-Apr-20 01:00N 66°32' E 011°43'510.6
2018-Apr-20 00:31N 66°36' E 011°51'611.0
2018-Apr-20 00:00N 66°40' E 011°59'2610.8
2018-Apr-19 21:37N 67°01' E 012°40'110.8
2018-Apr-19 21:30N 67°01' E 012°43'611.0
2018-Apr-19 21:00N 67°06' E 012°52'611.3
2018-Apr-19 20:30N 67°10' E 013°02'611.9
2018-Apr-19 20:00N 67°14' E 013°12'612.2
2018-Apr-19 19:30N 67°19' E 013°22'612.1
2018-Apr-19 19:00N 67°24' E 013°31'612.0
2018-Apr-19 18:30N 67°28' E 013°43'612.2
2018-Apr-19 18:00N 67°30' E 013°57'612.7
2018-Apr-19 17:31N 67°30' E 014°14'612.5
2018-Apr-19 17:00N 67°30' E 014°31'510.8
2018-Apr-19 16:30N 67°32' E 014°43'610.8
2018-Apr-19 15:58N 67°35' E 014°56'510.4
2018-Apr-19 15:30N 67°35' E 015°09'1110.9
2018-Apr-19 14:28N 67°27' E 015°30'3 7.1
2018-Apr-19 14:01N 67°24' E 015°33'0 0.1
2018-Apr-19 13:27N 67°24' E 015°33'0 0.0
2018-Apr-19 12:57N 67°24' E 015°33'0 0.0
2018-Apr-19 12:27N 67°24' E 015°33'0 0.0
2018-Apr-19 11:57N 67°24' E 015°33'0 0.0
2018-Apr-19 11:30N 67°24' E 015°33'0 0.0
2018-Apr-19 10:45N 67°24' E 015°33'0 0.0
2018-Apr-19 10:27N 67°24' E 015°33'0 0.0
2018-Apr-19 10:00N 67°24' E 015°33'0 0.0
2018-Apr-19 09:18N 67°24' E 015°33'0 0.0
2018-Apr-19 08:57N 67°24' E 015°33'0 0.0
2018-Apr-19 08:18N 67°24' E 015°33'0 0.0
2018-Apr-19 08:00N 67°24' E 015°33'0 0.1
2018-Apr-19 07:30N 67°24' E 015°33'0 0.0
2018-Apr-19 06:51N 67°24' E 015°33'0 0.0
2018-Apr-19 06:21N 67°24' E 015°33'0 0.0
2018-Apr-19 05:06N 67°24' E 015°33'0 0.0
2018-Apr-19 03:33N 67°24' E 015°33'0 0.0
2018-Apr-19 03:09N 67°24' E 015°33'0 0.0
2018-Apr-19 02:51N 67°24' E 015°33'0 0.0
2018-Apr-19 02:21N 67°24' E 015°33'0 0.0
2018-Apr-19 01:57N 67°24' E 015°33'0 0.0
2018-Apr-19 01:27N 67°24' E 015°33'0 0.0
2018-Apr-19 00:51N 67°24' E 015°33'0 0.0
2018-Apr-18 23:12N 67°24' E 015°33'0 0.0
2018-Apr-18 23:00N 67°24' E 015°33'0 0.0
2018-Apr-18 22:30N 67°24' E 015°33'0 0.0
2018-Apr-18 21:12N 67°24' E 015°33'0 0.0
2018-Apr-18 20:42N 67°24' E 015°33'0 0.0
2018-Apr-18 20:24N 67°24' E 015°33'0 0.0
2018-Apr-18 20:00N 67°24' E 015°33'0 0.0
2018-Apr-18 19:30N 67°24' E 015°33'0 0.0
2018-Apr-18 19:00N 67°24' E 015°33'0 0.0
2018-Apr-18 18:30N 67°24' E 015°33'0 0.0
2018-Apr-18 18:00N 67°24' E 015°33'0 0.0
2018-Apr-18 17:30N 67°24' E 015°33'0 0.0
2018-Apr-18 17:00N 67°24' E 015°33'0 0.0
2018-Apr-18 16:21N 67°24' E 015°33'0 0.0
2018-Apr-18 15:51N 67°24' E 015°33'0 0.0
2018-Apr-18 15:18N 67°24' E 015°33'0 0.0
2018-Apr-18 14:51N 67°24' E 015°33'0 0.0
2018-Apr-18 14:21N 67°24' E 015°33'0 0.0
2018-Apr-18 12:47N 67°24' E 015°33'0 0.2
2018-Apr-18 12:30N 67°24' E 015°33'2 4.0
2018-Apr-18 12:00N 67°22' E 015°35'0 0.1
2018-Apr-18 11:04N 67°22' E 015°35'0 0.0
2018-Apr-18 08:40N 67°22' E 015°35'0 0.0
2018-Apr-18 08:28N 67°22' E 015°35'0 0.0
2018-Apr-18 07:58N 67°22' E 015°35'0 0.0
2018-Apr-18 07:28N 67°22' E 015°35'0 0.0
2018-Apr-18 06:58N 67°22' E 015°35'0 0.0
2018-Apr-18 06:28N 67°22' E 015°35'0 0.0
2018-Apr-18 05:46N 67°22' E 015°35'0 0.0
2018-Apr-18 05:25N 67°22' E 015°35'0 0.0
2018-Apr-18 03:58N 67°22' E 015°35'0 0.0
2018-Apr-18 03:16N 67°22' E 015°35'0 0.0
2018-Apr-18 02:58N 67°22' E 015°35'0 0.0
2018-Apr-18 02:28N 67°22' E 015°35'0 0.0
2018-Apr-18 01:46N 67°22' E 015°35'0 0.0
2018-Apr-18 01:19N 67°22' E 015°35'0 0.0
2018-Apr-18 00:46N 67°22' E 015°35'0 0.0
2018-Apr-18 00:22N 67°22' E 015°35'0 0.0
2018-Apr-17 23:52N 67°22' E 015°35'0 0.0
2018-Apr-17 23:22N 67°22' E 015°35'0 0.0
2018-Apr-17 22:52N 67°22' E 015°35'0 0.0
2018-Apr-17 22:22N 67°22' E 015°35'0 0.0
2018-Apr-17 21:55N 67°22' E 015°35'0 0.0
2018-Apr-17 21:10N 67°22' E 015°35'0 0.0
2018-Apr-17 20:55N 67°22' E 015°35'0 0.0
2018-Apr-17 20:22N 67°22' E 015°35'0 0.0
2018-Apr-17 19:55N 67°22' E 015°35'0 0.0
2018-Apr-17 19:22N 67°22' E 015°35'0 0.0
2018-Apr-17 18:55N 67°22' E 015°35'0 0.0
2018-Apr-17 18:13N 67°22' E 015°35'0 0.0
2018-Apr-17 17:58N 67°22' E 015°35'0 0.0
2018-Apr-17 17:28N 67°22' E 015°35'0 0.0
2018-Apr-17 16:58N 67°22' E 015°35'0 0.0
2018-Apr-17 16:28N 67°22' E 015°35'0 0.0
2018-Apr-17 15:58N 67°22' E 015°35'0 0.0
2018-Apr-17 15:28N 67°22' E 015°35'0 0.0
2018-Apr-17 14:43N 67°22' E 015°35'0 0.0
2018-Apr-17 14:16N 67°22' E 015°35'0 0.0
2018-Apr-17 13:58N 67°22' E 015°35'0 0.0
2018-Apr-17 13:25N 67°22' E 015°35'1 1.3
2018-Apr-17 13:00N 67°22' E 015°36'0 0.1
2018-Apr-17 12:30N 67°22' E 015°36'0 0.4
2018-Apr-17 12:00N 67°23' E 015°35'811.1
2018-Apr-17 11:16N 67°30' E 015°26'312.4
2018-Apr-17 10:59N 67°31' E 015°18'612.2
2018-Apr-17 10:29N 67°36' E 015°07'612.0
2018-Apr-17 10:00N 67°34' E 014°52'613.0
2018-Apr-17 09:30N 67°31' E 014°38'612.0
2018-Apr-17 09:00N 67°30' E 014°22'4 8.1
2018-Apr-17 08:30N 67°30' E 014°12'5 9.9
2018-Apr-17 08:00N 67°30' E 013°59'611.2
2018-Apr-17 07:30N 67°28' E 013°45'612.2
2018-Apr-17 07:00N 67°25' E 013°32'612.3
2018-Apr-17 06:31N 67°22' E 013°18'612.1
2018-Apr-17 06:00N 67°19' E 013°04'1512.2
2018-Apr-17 04:44N 67°10' E 012°32'312.1
2018-Apr-17 04:31N 67°08' E 012°27'612.1
2018-Apr-17 03:59N 67°03' E 012°16'712.3
2018-Apr-17 03:27N 66°59' E 012°04'512.2
2018-Apr-17 03:01N 66°55' E 011°54'612.6
2018-Apr-17 02:30N 66°50' E 011°44'612.8
2018-Apr-17 02:00N 66°44' E 011°38'612.4
2018-Apr-17 01:31N 66°38' E 011°33'713.1
2018-Apr-17 01:01N 66°32' E 011°27'713.4
2018-Apr-17 00:31N 66°26' E 011°21'713.0
2018-Apr-17 00:00N 66°20' E 011°15'612.6
2018-Apr-16 23:30N 66°14' E 011°09'  
Track history (hours):
 
Tides and Currents Weather Stations Pressure Air Temp Water Temp Dewpoint Dewpoint Depression Visibility Wind Speed Wind Dir Waves Ship Positions

Wilson Mersin

Last reported at 2018-Apr-26 15:29 UTC. Time now 2018-Apr-26 15:32 UTC.
Position N 51°03' E 002°20'.

Length 107 m; draft 4.8 m.

Type: Cargo ship. MMSI: 210072000.

Date/timePositionNaut miles runAvg speedWind from/ knotsBaromVisibWave heightAir tempDewpointWater temp
2018-Apr-26 15:29N 51°03' E 002°20'0 0.0
2018-Apr-26 14:56N 51°03' E 002°20'0 0.0
2018-Apr-26 14:29N 51°03' E 002°20'0 0.0
2018-Apr-26 13:56N 51°03' E 002°20'0 0.0
2018-Apr-26 13:29N 51°03' E 002°20'0 0.0
2018-Apr-26 12:59N 51°03' E 002°20'0 0.0
2018-Apr-26 12:26N 51°03' E 002°20'1 0.9
2018-Apr-26 11:23N 51°03' E 002°21'2 4.7
2018-Apr-26 11:00N 51°04' E 002°19'3 6.0
2018-Apr-26 10:30N 51°04' E 002°14'714.6
2018-Apr-26 10:00N 51°03' E 002°03'815.0
2018-Apr-26 09:28N 51°03' E 001°50'713.6
2018-Apr-26 08:59N 51°07' E 001°41'4 9.3
2018-Apr-26 08:31N 51°11' E 001°43'611.2
2018-Apr-26 08:00N 51°15' E 001°49'611.9
2018-Apr-26 07:30N 51°20' E 001°54'612.7
2018-Apr-26 07:01N 51°26' E 001°59'713.4
2018-Apr-26 06:30N 51°31' E 002°06'713.7
2018-Apr-26 06:00N 51°36' E 002°13'7012.5
2018-Apr-26 00:24N 52°29' E 003°28'511.9
2018-Apr-25 23:59N 52°30' E 003°36'611.7
2018-Apr-25 23:30N 52°31' E 003°45'611.8
2018-Apr-25 22:59N 52°31' E 003°55'611.7
2018-Apr-25 22:30N 52°31' E 004°04'612.0
2018-Apr-25 22:00N 52°31' E 004°14'612.4
2018-Apr-25 21:30N 52°29' E 004°24'510.1
2018-Apr-25 21:00N 52°28' E 004°32'3 5.4
2018-Apr-25 20:31N 52°28' E 004°37'1 1.5
2018-Apr-25 20:00N 52°28' E 004°38'1 1.3
2018-Apr-25 19:30N 52°28' E 004°39'1 2.1
2018-Apr-25 19:00N 52°27' E 004°40'4 7.1
2018-Apr-25 18:30N 52°26' E 004°46'3 6.6
2018-Apr-25 18:01N 52°25' E 004°51'2 4.7
2018-Apr-25 17:30N 52°23' E 004°54'0 0.0
2018-Apr-25 17:00N 52°23' E 004°54'0 0.0
2018-Apr-25 16:30N 52°23' E 004°54'0 0.0
2018-Apr-25 16:00N 52°23' E 004°54'0 0.0
2018-Apr-25 15:30N 52°23' E 004°54'0 0.0
2018-Apr-25 15:00N 52°23' E 004°54'0 0.0
2018-Apr-25 14:30N 52°23' E 004°54'0 0.0
2018-Apr-25 14:00N 52°23' E 004°54'0 0.0
2018-Apr-25 13:30N 52°23' E 004°54'0 0.0
2018-Apr-25 13:00N 52°23' E 004°54'0 0.0
2018-Apr-25 12:30N 52°24' E 004°54'0 0.0
2018-Apr-25 11:57N 52°23' E 004°54'0 0.0
2018-Apr-25 11:30N 52°23' E 004°54'0 0.0
2018-Apr-25 11:00N 52°24' E 004°54'0 0.0
2018-Apr-25 10:30N 52°23' E 004°54'0 0.0
2018-Apr-25 10:00N 52°24' E 004°54'0 0.0
2018-Apr-25 09:30N 52°23' E 004°54'0 0.0
2018-Apr-25 09:00N 52°23' E 004°54'0 0.0
2018-Apr-25 08:30N 52°23' E 004°54'0 0.0
2018-Apr-25 08:00N 52°23' E 004°54'0 0.0
2018-Apr-25 07:30N 52°23' E 004°54'0 0.0
2018-Apr-25 07:00N 52°23' E 004°54'0 0.0
2018-Apr-25 06:30N 52°23' E 004°54'0 0.0
2018-Apr-25 06:00N 52°23' E 004°54'0 0.0
2018-Apr-25 05:30N 52°23' E 004°54'0 0.0
2018-Apr-25 05:00N 52°23' E 004°54'0 0.0
2018-Apr-25 04:30N 52°23' E 004°54'0 0.0
2018-Apr-25 04:00N 52°23' E 004°54'0 0.0
2018-Apr-25 03:30N 52°23' E 004°54'0 0.0
2018-Apr-25 03:00N 52°23' E 004°54'0 0.0
2018-Apr-25 02:30N 52°23' E 004°54'0 0.0
2018-Apr-25 02:00N 52°23' E 004°54'0 0.0
2018-Apr-25 01:30N 52°23' E 004°54'0 0.0
2018-Apr-25 01:00N 52°23' E 004°54'0 0.0
2018-Apr-25 00:30N 52°23' E 004°54'0 0.0
2018-Apr-25 00:00N 52°23' E 004°54'0 0.0
2018-Apr-24 23:30N 52°23' E 004°54'0 0.0
2018-Apr-24 23:00N 52°23' E 004°54'0 0.0
2018-Apr-24 22:30N 52°23' E 004°54'0 0.0
2018-Apr-24 22:00N 52°23' E 004°54'0 0.0
2018-Apr-24 21:30N 52°23' E 004°54'0 0.0
2018-Apr-24 21:00N 52°23' E 004°54'0 0.0
2018-Apr-24 20:30N 52°23' E 004°54'0 0.0
2018-Apr-24 20:00N 52°23' E 004°54'0 0.0
2018-Apr-24 19:30N 52°23' E 004°54'0 0.0
2018-Apr-24 19:00N 52°23' E 004°54'0 0.0
2018-Apr-24 18:30N 52°23' E 004°54'0 0.0
2018-Apr-24 17:57N 52°23' E 004°54'0 0.0
2018-Apr-24 17:30N 52°23' E 004°54'0 0.0
2018-Apr-24 17:00N 52°23' E 004°54'0 0.0
2018-Apr-24 16:30N 52°23' E 004°54'0 0.0
2018-Apr-24 16:00N 52°23' E 004°54'0 0.0
2018-Apr-24 15:30N 52°23' E 004°54'0 0.0
2018-Apr-24 15:00N 52°23' E 004°54'0 0.0
2018-Apr-24 14:30N 52°23' E 004°54'0 0.0
2018-Apr-24 14:00N 52°23' E 004°54'0 0.5
2018-Apr-24 13:30N 52°24' E 004°54'1 2.2
2018-Apr-24 13:00N 52°24' E 004°52'0 0.3
2018-Apr-24 12:30N 52°24' E 004°52'0 0.0
2018-Apr-24 12:00N 52°24' E 004°52'0 0.0
2018-Apr-24 11:27N 52°24' E 004°52'0 0.0
2018-Apr-24 11:00N 52°24' E 004°52'0 0.0
2018-Apr-24 10:30N 52°24' E 004°52'0 0.0
2018-Apr-24 10:00N 52°24' E 004°52'0 0.0
2018-Apr-24 09:30N 52°24' E 004°52'0 0.0
2018-Apr-24 09:00N 52°24' E 004°52'0 0.0
2018-Apr-24 08:30N 52°24' E 004°52'0 0.0
2018-Apr-24 08:00N 52°24' E 004°52'0 0.0
2018-Apr-24 07:30N 52°24' E 004°52'0 0.0
2018-Apr-24 07:00N 52°24' E 004°52'0 0.0
2018-Apr-24 06:30N 52°24' E 004°52'0 0.0
2018-Apr-24 06:00N 52°24' E 004°52'0 0.0
2018-Apr-24 05:30N 52°24' E 004°52'0 0.0
2018-Apr-24 05:00N 52°24' E 004°52'0 0.0
2018-Apr-24 04:27N 52°24' E 004°52'0 0.0
2018-Apr-24 04:00N 52°24' E 004°52'0 0.0
2018-Apr-24 03:30N 52°24' E 004°52'0 0.0
2018-Apr-24 03:00N 52°24' E 004°52'0 0.0
2018-Apr-24 02:30N 52°24' E 004°52'0 0.0
2018-Apr-24 02:00N 52°24' E 004°52'0 0.0
2018-Apr-24 01:30N 52°24' E 004°52'0 0.0
2018-Apr-24 01:00N 52°24' E 004°52'0 0.0
2018-Apr-24 00:30N 52°24' E 004°52'0 0.0
2018-Apr-23 23:57N 52°24' E 004°52'0 0.0
2018-Apr-23 23:30N 52°24' E 004°52'0 0.0
2018-Apr-23 23:00N 52°24' E 004°52'0 0.0
2018-Apr-23 22:30N 52°24' E 004°52'0 0.0
2018-Apr-23 22:00N 52°24' E 004°52'0 0.0
2018-Apr-23 21:30N 52°24' E 004°52'0 0.0
2018-Apr-23 21:00N 52°24' E 004°52'0 0.0
2018-Apr-23 20:30N 52°24' E 004°52'0 0.0
2018-Apr-23 20:00N 52°24' E 004°52'0 0.0
2018-Apr-23 19:30N 52°24' E 004°52'0 0.0
2018-Apr-23 19:01N 52°24' E 004°52'2 3.1
2018-Apr-23 18:31N 52°25' E 004°50'4 8.3
2018-Apr-23 18:01N 52°26' E 004°43'4 7.7
2018-Apr-23 17:30N 52°28' E 004°38'1 1.7
2018-Apr-23 17:01N 52°28' E 004°36'1 2.2
2018-Apr-23 16:31N 52°28' E 004°35'2 4.9
2018-Apr-23 16:01N 52°28' E 004°31'5 9.4
2018-Apr-23 15:31N 52°28' E 004°23'611.1
2018-Apr-23 15:01N 52°29' E 004°14'510.4
2018-Apr-23 14:31N 52°32' E 004°07'712.3
2018-Apr-23 13:56N 52°39' E 004°02'34411.1
2018-Apr-22 06:47N 58°23' E 004°36'311.2
2018-Apr-22 06:31N 58°26' E 004°36'611.3
2018-Apr-22 06:00N 58°31' E 004°35'510.8
2018-Apr-22 05:30N 58°37' E 004°34'1111.2
2018-Apr-22 04:30N 58°48' E 004°31'8711.5
2018-Apr-21 20:57N 60°15' E 004°28'511.4
2018-Apr-21 20:30N 60°20' E 004°27'511.2
2018-Apr-21 20:00N 60°25' E 004°25'611.3
2018-Apr-21 19:29N 60°31' E 004°23'611.4
2018-Apr-21 19:00N 60°37' E 004°22'1311.6
2018-Apr-21 17:51N 60°50' E 004°17'411.7
2018-Apr-21 17:30N 60°54' E 004°16'511.1
2018-Apr-21 17:00N 60°59' E 004°15'5 9.8
2018-Apr-21 16:30N 61°04' E 004°15'510.3
2018-Apr-21 16:00N 61°09' E 004°16'3610.8
2018-Apr-21 12:41N 61°45' E 004°23'210.3
2018-Apr-21 12:30N 61°47' E 004°25'610.6
2018-Apr-21 11:59N 61°52' E 004°30'510.0
2018-Apr-21 11:30N 61°56' E 004°34'510.2
2018-Apr-21 11:00N 62°01' E 004°39'510.8
2018-Apr-21 10:30N 62°06' E 004°44'611.1
2018-Apr-21 10:00N 62°11' E 004°48'510.3
2018-Apr-21 09:30N 62°15' E 004°53'510.3
2018-Apr-21 09:00N 62°20' E 004°58'5 9.9
2018-Apr-21 08:31N 62°23' E 005°06'5 9.8
2018-Apr-21 08:00N 62°27' E 005°12'510.3
2018-Apr-21 07:30N 62°31' E 005°19'510.4
2018-Apr-21 07:00N 62°35' E 005°26'510.0
2018-Apr-21 06:30N 62°40' E 005°33'5 9.9
2018-Apr-21 06:00N 62°43' E 005°39'5 9.4
2018-Apr-21 05:30N 62°47' E 005°46'5 9.5
2018-Apr-21 05:00N 62°50' E 005°53'5 9.0
2018-Apr-21 04:30N 62°53' E 006°00'4 9.0
2018-Apr-21 04:00N 62°57' E 006°07'4 8.7
2018-Apr-21 03:30N 62°60' E 006°14'4 8.7
2018-Apr-21 03:00N 63°03' E 006°21'4 8.9
2018-Apr-21 02:30N 63°06' E 006°28'5 9.3
2018-Apr-21 02:00N 63°10' E 006°34'5 9.3
2018-Apr-21 01:30N 63°13' E 006°41'5 9.0
2018-Apr-21 01:00N 63°16' E 006°48'4 8.3
2018-Apr-21 00:31N 63°19' E 006°54'4 8.2
2018-Apr-21 00:00N 63°23' E 006°59'4 8.0
2018-Apr-20 23:31N 63°26' E 007°05'4 7.9
2018-Apr-20 23:01N 63°29' E 007°10'4 7.8
2018-Apr-20 22:29N 63°32' E 007°16'4 7.7
2018-Apr-20 22:00N 63°35' E 007°21'4 7.4
2018-Apr-20 21:31N 63°38' E 007°27'4 7.5
2018-Apr-20 20:59N 63°41' E 007°32'4 7.9
2018-Apr-20 20:30N 63°44' E 007°37'4 8.4
2018-Apr-20 20:00N 63°47' E 007°43'4 8.5
2018-Apr-20 19:30N 63°51' E 007°49'5 9.2
2018-Apr-20 19:00N 63°54' E 007°55'17810.2
2018-Apr-20 01:36N 66°26' E 011°34'210.7
2018-Apr-20 01:28N 66°28' E 011°36'510.9
2018-Apr-20 01:00N 66°32' E 011°43'510.6
2018-Apr-20 00:31N 66°36' E 011°51'611.0
2018-Apr-20 00:00N 66°40' E 011°59'2610.8
2018-Apr-19 21:37N 67°01' E 012°40'110.8
2018-Apr-19 21:30N 67°01' E 012°43'611.0
2018-Apr-19 21:00N 67°06' E 012°52'611.3
2018-Apr-19 20:30N 67°10' E 013°02'611.9
2018-Apr-19 20:00N 67°14' E 013°12'612.2
2018-Apr-19 19:30N 67°19' E 013°22'612.1
2018-Apr-19 19:00N 67°24' E 013°31'612.0
2018-Apr-19 18:30N 67°28' E 013°43'612.2
2018-Apr-19 18:00N 67°30' E 013°57'612.7
2018-Apr-19 17:31N 67°30' E 014°14'612.5
2018-Apr-19 17:00N 67°30' E 014°31'510.8
2018-Apr-19 16:30N 67°32' E 014°43'610.8
2018-Apr-19 15:58N 67°35' E 014°56'510.4
2018-Apr-19 15:30N 67°35' E 015°09'1110.9
2018-Apr-19 14:28N 67°27' E 015°30'3 7.1
2018-Apr-19 14:01N 67°24' E 015°33'0 0.1
2018-Apr-19 13:27N 67°24' E 015°33'0 0.0
2018-Apr-19 12:57N 67°24' E 015°33'0 0.0
2018-Apr-19 12:27N 67°24' E 015°33'0 0.0
2018-Apr-19 11:57N 67°24' E 015°33'0 0.0
2018-Apr-19 11:30N 67°24' E 015°33'0 0.0
2018-Apr-19 10:45N 67°24' E 015°33'0 0.0
2018-Apr-19 10:27N 67°24' E 015°33'0 0.0
2018-Apr-19 10:00N 67°24' E 015°33'0 0.0
2018-Apr-19 09:18N 67°24' E 015°33'0 0.0
2018-Apr-19 08:57N 67°24' E 015°33'0 0.0
2018-Apr-19 08:18N 67°24' E 015°33'0 0.0
2018-Apr-19 08:00N 67°24' E 015°33'0 0.1
2018-Apr-19 07:30N 67°24' E 015°33'0 0.0
2018-Apr-19 06:51N 67°24' E 015°33'0 0.0
2018-Apr-19 06:21N 67°24' E 015°33'0 0.0
2018-Apr-19 05:06N 67°24' E 015°33'0 0.0
2018-Apr-19 03:33N 67°24' E 015°33'0 0.0
2018-Apr-19 03:09N 67°24' E 015°33'0 0.0
2018-Apr-19 02:51N 67°24' E 015°33'0 0.0
2018-Apr-19 02:21N 67°24' E 015°33'0 0.0
2018-Apr-19 01:57N 67°24' E 015°33'0 0.0
2018-Apr-19 01:27N 67°24' E 015°33'0 0.0
2018-Apr-19 00:51N 67°24' E 015°33'0 0.0
2018-Apr-18 23:12N 67°24' E 015°33'0 0.0
2018-Apr-18 23:00N 67°24' E 015°33'0 0.0
2018-Apr-18 22:30N 67°24' E 015°33'0 0.0
2018-Apr-18 21:12N 67°24' E 015°33'0 0.0
2018-Apr-18 20:42N 67°24' E 015°33'0 0.0
2018-Apr-18 20:24N 67°24' E 015°33'0 0.0
2018-Apr-18 20:00N 67°24' E 015°33'0 0.0
2018-Apr-18 19:30N 67°24' E 015°33'0 0.0
2018-Apr-18 19:00N 67°24' E 015°33'0 0.0
2018-Apr-18 18:30N 67°24' E 015°33'0 0.0
2018-Apr-18 18:00N 67°24' E 015°33'0 0.0
2018-Apr-18 17:30N 67°24' E 015°33'0 0.0
2018-Apr-18 17:00N 67°24' E 015°33'0 0.0
2018-Apr-18 16:21N 67°24' E 015°33'0 0.0
2018-Apr-18 15:51N 67°24' E 015°33'0 0.0
2018-Apr-18 15:18N 67°24' E 015°33'0 0.0
2018-Apr-18 14:51N 67°24' E 015°33'0 0.0
2018-Apr-18 14:21N 67°24' E 015°33'0 0.0
2018-Apr-18 12:47N 67°24' E 015°33'0 0.2
2018-Apr-18 12:30N 67°24' E 015°33'2 4.0
2018-Apr-18 12:00N 67°22' E 015°35'0 0.1
2018-Apr-18 11:04N 67°22' E 015°35'0 0.0
2018-Apr-18 08:40N 67°22' E 015°35'0 0.0
2018-Apr-18 08:28N 67°22' E 015°35'0 0.0
2018-Apr-18 07:58N 67°22' E 015°35'0 0.0
2018-Apr-18 07:28N 67°22' E 015°35'0 0.0
2018-Apr-18 06:58N 67°22' E 015°35'0 0.0
2018-Apr-18 06:28N 67°22' E 015°35'0 0.0
2018-Apr-18 05:46N 67°22' E 015°35'0 0.0
2018-Apr-18 05:25N 67°22' E 015°35'0 0.0
2018-Apr-18 03:58N 67°22' E 015°35'0 0.0
2018-Apr-18 03:16N 67°22' E 015°35'0 0.0
2018-Apr-18 02:58N 67°22' E 015°35'0 0.0
2018-Apr-18 02:28N 67°22' E 015°35'0 0.0
2018-Apr-18 01:46N 67°22' E 015°35'0 0.0
2018-Apr-18 01:19N 67°22' E 015°35'0 0.0
2018-Apr-18 00:46N 67°22' E 015°35'0 0.0
2018-Apr-18 00:22N 67°22' E 015°35'0 0.0
2018-Apr-17 23:52N 67°22' E 015°35'0 0.0
2018-Apr-17 23:22N 67°22' E 015°35'0 0.0
2018-Apr-17 22:52N 67°22' E 015°35'0 0.0
2018-Apr-17 22:22N 67°22' E 015°35'0 0.0
2018-Apr-17 21:55N 67°22' E 015°35'0 0.0
2018-Apr-17 21:10N 67°22' E 015°35'0 0.0
2018-Apr-17 20:55N 67°22' E 015°35'0 0.0
2018-Apr-17 20:22N 67°22' E 015°35'0 0.0
2018-Apr-17 19:55N 67°22' E 015°35'0 0.0
2018-Apr-17 19:22N 67°22' E 015°35'0 0.0
2018-Apr-17 18:55N 67°22' E 015°35'0 0.0
2018-Apr-17 18:13N 67°22' E 015°35'0 0.0
2018-Apr-17 17:58N 67°22' E 015°35'0 0.0
2018-Apr-17 17:28N 67°22' E 015°35'0 0.0
2018-Apr-17 16:58N 67°22' E 015°35'0 0.0
2018-Apr-17 16:28N 67°22' E 015°35'0 0.0
2018-Apr-17 15:58N 67°22' E 015°35'0 0.0
2018-Apr-17 15:28N 67°22' E 015°35'0 0.0
2018-Apr-17 14:43N 67°22' E 015°35'0 0.0
2018-Apr-17 14:16N 67°22' E 015°35'0 0.0
2018-Apr-17 13:58N 67°22' E 015°35'0 0.0
2018-Apr-17 13:25N 67°22' E 015°35'1 1.3
2018-Apr-17 13:00N 67°22' E 015°36'0 0.1
2018-Apr-17 12:30N 67°22' E 015°36'0 0.4
2018-Apr-17 12:00N 67°23' E 015°35'811.1
2018-Apr-17 11:16N 67°30' E 015°26'312.4
2018-Apr-17 10:59N 67°31' E 015°18'612.2
2018-Apr-17 10:29N 67°36' E 015°07'612.0
2018-Apr-17 10:00N 67°34' E 014°52'613.0
2018-Apr-17 09:30N 67°31' E 014°38'612.0
2018-Apr-17 09:00N 67°30' E 014°22'4 8.1
2018-Apr-17 08:30N 67°30' E 014°12'5 9.9
2018-Apr-17 08:00N 67°30' E 013°59'611.2
2018-Apr-17 07:30N 67°28' E 013°45'612.2
2018-Apr-17 07:00N 67°25' E 013°32'612.3
2018-Apr-17 06:31N 67°22' E 013°18'612.1
2018-Apr-17 06:00N 67°19' E 013°04'1512.2
2018-Apr-17 04:44N 67°10' E 012°32'312.1
2018-Apr-17 04:31N 67°08' E 012°27'612.1
2018-Apr-17 03:59N 67°03' E 012°16'712.3
2018-Apr-17 03:27N 66°59' E 012°04'512.2
2018-Apr-17 03:01N 66°55' E 011°54'612.6
2018-Apr-17 02:30N 66°50' E 011°44'612.8
2018-Apr-17 02:00N 66°44' E 011°38'612.4
2018-Apr-17 01:31N 66°38' E 011°33'713.1
2018-Apr-17 01:01N 66°32' E 011°27'713.4
2018-Apr-17 00:31N 66°26' E 011°21'713.0
2018-Apr-17 00:00N 66°20' E 011°15'612.6
2018-Apr-16 23:30N 66°14' E 011°09'  

Dump ship's entire track history